Time;durP1;ratioP1;P1;durP2;ratioP2;P2;SDS_P1;SDS_P2;PMS_P1;PMS_P2;Temp;Humidity;BMP_temperature;BMP_pressure;BME280_temperature;BME280_humidity;BME280_pressure;Samples;Min_cycle;Max_cycle;Signal;HPM_P1;HPM_P2
2022/09/30 00:01:28;;;;;;;;;24.00;20.50;;;;;11.98;100.00;100610.50;5069310;28;45340;-70
2022/09/30 00:03:55;;;;;;;;;26.25;21.00;;;;;11.87;100.00;100596.38;5066358;28;47352;-70
2022/09/30 00:06:21;;;;;;;;;24.00;19.50;;;;;12.02;100.00;100620.22;5076088;28;45415;-70
2022/09/30 00:08:47;;;;;;;;;23.25;19.00;;;;;12.01;100.00;100618.44;5073281;28;45826;-72
2022/09/30 00:11:16;;;;;;;;;21.50;19.00;;;;;11.94;100.00;100612.28;5076814;28;45389;-70
2022/09/30 00:13:43;;;;;;;;;22.25;18.00;;;;;11.93;100.00;100607.88;5069561;28;47161;-70
2022/09/30 00:16:10;;;;;;;;;21.50;17.75;;;;;11.94;100.00;100604.34;5069613;28;45412;-70
2022/09/30 00:18:36;;;;;;;;;23.50;18.50;;;;;11.93;100.00;100607.88;5068943;28;45448;-70
2022/09/30 00:21:01;;;;;;;;;18.25;18.25;;;;;11.93;100.00;100610.53;5068734;28;45313;-70
2022/09/30 00:23:27;;;;;;;;;17.25;17.25;;;;;11.94;100.00;100622.84;5072819;28;56471;-70
2022/09/30 00:26:00;;;;;;;;;22.75;18.50;;;;;11.94;100.00;100621.97;5060733;28;63876;-70
2022/09/30 00:28:26;;;;;;;;;19.00;15.00;;;;;11.89;100.00;100613.16;5062107;28;45413;-72
2022/09/30 00:30:52;;;;;;;;;18.25;17.00;;;;;11.82;100.00;100601.66;5059260;28;45273;-72
2022/09/30 00:33:17;;;;;;;;;20.50;18.25;;;;;11.88;100.00;100620.22;5067088;28;46400;-70
2022/09/30 00:35:43;;;;;;;;;20.00;17.75;;;;;11.87;100.00;100618.41;5072422;28;45422;-70
2022/09/30 00:38:08;;;;;;;;;20.25;18.75;;;;;11.86;100.00;100618.41;5054826;28;58456;-70
2022/09/30 00:40:37;;;;;;;;;21.75;17.75;;;;;11.84;100.00;100622.84;5073596;28;60613;-70
2022/09/30 00:43:18;;;;;;;;;19.75;19.75;;;;;11.78;100.00;100621.03;5089910;27;45663;-72
2022/09/30 00:45:50;;;;;;;;;20.25;16.25;;;;;11.81;100.00;100626.31;5073254;28;45405;-70
2022/09/30 00:48:19;;;;;;;;;22.50;18.75;;;;;11.80;100.00;100632.47;5089208;27;45457;-70
2022/09/30 00:50:46;;;;;;;;;21.25;15.75;;;;;11.76;100.00;100621.00;5073851;28;45457;-71
2022/09/30 00:53:19;;;;;;;;;18.25;15.50;;;;;11.77;100.00;100632.47;5071580;28;46851;-70
2022/09/30 00:55:51;;;;;;;;;18.00;16.75;;;;;11.74;100.00;100627.19;5072336;28;45566;-70
2022/09/30 00:58:28;;;;;;;;;21.50;17.25;;;;;11.77;100.00;100632.47;5073443;27;45372;-70
2022/09/30 01:00:54;;;;;;;;;16.50;14.50;;;;;11.78;100.00;100632.50;5062599;28;45632;-69
2022/09/30 01:03:21;;;;;;;;;22.25;18.00;;;;;11.74;100.00;100629.81;5072647;28;45851;-70
2022/09/30 01:05:47;;;;;;;;;17.75;15.25;;;;;11.79;100.00;100639.53;5071534;28;45326;-70
2022/09/30 01:08:13;;;;;;;;;18.00;15.75;;;;;11.79;100.00;100647.47;5088817;27;45526;-71
2022/09/30 01:10:38;;;;;;;;;18.50;13.75;;;;;11.76;100.00;100636.88;5067832;28;51023;-70
2022/09/30 01:13:04;;;;;;;;;19.75;13.25;;;;;11.76;100.00;100639.50;5072847;28;46304;-70
2022/09/30 01:15:42;;;;;;;;;18.75;12.75;;;;;11.77;100.00;100632.47;5071930;28;45360;-71
2022/09/30 01:18:16;;;;;;;;;15.75;14.50;;;;;11.73;100.00;100622.78;5070334;28;45422;-71
2022/09/30 01:20:47;;;;;;;;;21.00;16.25;;;;;11.77;100.00;100630.72;5072782;28;45338;-69
2022/09/30 01:23:36;;;;;;;;;18.50;17.25;;;;;11.75;100.00;100629.81;5071504;28;46617;-69
2022/09/30 01:26:20;;;;;;;;;16.75;13.75;;;;;11.73;100.00;100628.06;5088743;27;45272;-69
2022/09/30 01:29:11;;;;;;;;;13.25;12.00;;;;;11.72;100.00;100628.94;5073145;28;45276;-70
2022/09/30 01:32:09;;;;;;;;;17.00;14.50;;;;;11.69;100.00;100634.22;5084531;27;45421;-69
2022/09/30 01:35:19;;;;;;;;;16.00;15.00;;;;;11.66;100.00;100640.38;5069895;27;45903;-70
2022/09/30 01:37:51;;;;;;;;;14.50;11.75;;;;;11.64;100.00;100633.31;5065580;28;45286;-70
2022/09/30 01:40:29;;;;;;;;;13.50;13.50;;;;;11.53;100.00;100623.59;5066206;28;45216;-70
2022/09/30 01:43:09;;;;;;;;;18.25;14.50;;;;;11.58;100.00;100633.28;5071025;28;45481;-70
2022/09/30 01:45:57;;;;;;;;;18.50;16.00;;;;;11.52;100.00;100635.03;5087856;27;46833;-71
2022/09/30 01:48:41;;;;;;;;;14.75;12.00;;;;;11.48;100.00;100632.38;5071265;28;45659;-70
2022/09/30 01:51:23;;;;;;;;;14.00;14.00;;;;;11.49;100.00;100639.41;5088405;27;45292;-70
2022/09/30 01:53:54;;;;;;;;;22.25;16.25;;;;;11.44;100.00;100642.03;5061761;28;45430;-71
2022/09/30 01:56:33;;;;;;;;;20.50;16.00;;;;;11.47;100.00;100657.06;5058663;28;47352;-69
2022/09/30 01:59:04;;;;;;;;;16.25;14.75;;;;;11.41;100.00;100644.69;5053889;28;45553;-70
2022/09/30 02:01:34;;;;;;;;;18.25;15.50;;;;;11.39;100.00;100632.31;5058975;28;45381;-71
2022/09/30 02:04:07;;;;;;;;;17.50;17.00;;;;;11.39;100.00;100637.63;5053835;28;45478;-70
2022/09/30 02:06:37;;;;;;;;;18.00;14.00;;;;;11.35;100.00;100625.28;5055477;28;46733;-70
2022/09/30 02:09:27;;;;;;;;;14.75;11.00;;;;;11.38;100.00;100633.22;5058237;28;45441;-71
2022/09/30 02:11:55;;;;;;;;;14.50;11.50;;;;;11.37;100.00;100639.38;5040725;28;45273;-69
2022/09/30 02:14:33;;;;;;;;;14.75;13.00;;;;;11.31;100.00;100631.44;5057769;28;45410;-70
2022/09/30 02:17:03;;;;;;;;;16.50;12.75;;;;;11.31;100.00;100626.13;5074360;28;47726;-69
2022/09/30 02:19:40;;;;;;;;;15.00;11.00;;;;;11.31;100.00;100627.03;5058290;28;45231;-69
2022/09/30 02:22:11;;;;;;;;;14.50;11.50;;;;;11.30;100.00;100632.31;5074358;28;45224;-71
2022/09/30 02:24:36;;;;;;;;;15.50;14.25;;;;;11.27;100.00;100636.69;5058242;28;45383;-70
2022/09/30 02:27:05;;;;;;;;;14.00;11.00;;;;;11.26;100.00;100629.63;5074226;28;46379;-71
2022/09/30 02:29:35;;;;;;;;;17.00;13.00;;;;;11.24;100.00;100630.53;5056839;28;45565;-69
2022/09/30 02:32:12;;;;;;;;;14.75;14.00;;;;;11.17;100.00;100618.13;5057384;28;45305;-69
2022/09/30 02:34:41;;;;;;;;;11.00;11.00;;;;;11.06;100.00;100607.50;5058562;28;45513;-70
2022/09/30 02:37:06;;;;;;;;;14.25;11.25;;;;;11.20;100.00;100636.66;5058272;28;45228;-70
2022/09/30 02:40:30;;;;;;;;;16.50;13.75;;;;;11.18;100.00;100622.53;5057709;28;45452;-69
2022/09/30 02:42:55;;;;;;;;;12.00;11.00;;;;;11.14;100.00;100629.59;5044126;28;45443;-70
2022/09/30 02:45:22;;;;;;;;;13.50;12.50;;;;;11.15;100.00;100638.38;5047334;28;65124;-69
2022/09/30 02:48:02;;;;;;;;;12.50;12.50;;;;;11.11;100.00;100637.47;5056885;28;45708;-70
2022/09/30 02:50:45;;;;;;;;;13.75;10.25;;;;;11.12;100.00;100651.56;5050084;28;45347;-69
2022/09/30 02:53:17;;;;;;;;;13.75;10.50;;;;;11.08;100.00;100650.69;5057998;28;45362;-69
2022/09/30 02:55:54;;;;;;;;;14.00;12.00;;;;;11.06;100.00;100648.91;5058010;28;45260;-70
2022/09/30 02:58:24;;;;;;;;;15.00;11.25;;;;;11.00;100.00;100639.19;5057871;28;46573;-69
2022/09/30 03:00:50;;;;;;;;;12.75;10.75;;;;;11.02;100.00;100654.19;5057339;28;45472;-70
2022/09/30 03:03:58;;;;;;;;;13.75;11.25;;;;;11.01;100.00;100657.66;5058036;28;45592;-70
2022/09/30 03:06:23;;;;;;;;;17.50;13.75;;;;;11.00;100.00;100663.84;5031057;28;45306;-69
2022/09/30 03:08:51;;;;;;;;;14.50;12.75;;;;;10.96;100.00;100658.50;5014728;28;46566;-70
2022/09/30 03:11:18;;;;;;;;;12.00;10.00;;;;;10.94;100.00;100666.44;5043461;28;46579;-71
2022/09/30 03:13:54;;;;;;;;;16.00;14.00;;;;;10.97;100.00;100671.75;5057676;28;45344;-70
2022/09/30 03:16:41;;;;;;;;;13.75;11.50;;;;;10.96;100.00;100671.72;5056505;28;45250;-70
2022/09/30 03:19:09;;;;;;;;;12.25;12.25;;;;;10.95;100.00;100683.16;5057811;28;45622;-71
2022/09/30 03:21:59;;;;;;;;;15.25;14.50;;;;;10.89;100.00;100670.81;5057307;28;45366;-70
2022/09/30 03:25:02;;;;;;;;;15.75;9.50;;;;;10.93;100.00;100680.53;5057604;28;45367;-69
2022/09/30 03:27:52;;;;;;;;;11.25;11.25;;;;;10.93;100.00;100695.50;5057653;28;46401;-69
2022/09/30 03:30:20;;;;;;;;;14.25;11.25;;;;;10.93;100.00;100703.41;5045664;28;46419;-71
2022/09/30 03:32:48;;;;;;;;;10.75;9.25;;;;;10.92;100.00;100707.81;5055817;28;45407;-69
2022/09/30 03:35:32;;;;;;;;;16.75;14.00;;;;;10.91;100.00;100716.59;5057608;28;45406;-70
2022/09/30 03:37:57;;;;;;;;;15.25;11.75;;;;;10.90;100.00;100725.41;5057182;28;46237;-70
2022/09/30 03:40:27;;;;;;;;;18.00;14.75;;;;;10.86;100.00;100726.25;5057259;28;45489;-69
2022/09/30 03:42:57;;;;;;;;;17.50;11.75;;;;;10.90;100.00;100728.03;5073930;28;45391;-71
2022/09/30 03:45:36;;;;;;;;;12.50;10.25;;;;;10.88;100.00;100731.56;5062500;28;45452;-71
2022/09/30 03:48:04;;;;;;;;;11.00;11.00;;;;;10.92;100.00;100749.19;5075763;28;45937;-71
2022/09/30 03:50:32;;;;;;;;;12.75;11.00;;;;;10.89;100.00;100742.13;5059413;28;46566;-69
2022/09/30 03:52:58;;;;;;;;;13.75;13.75;;;;;10.97;100.00;100752.75;5076720;28;45561;-70
2022/09/30 03:55:24;;;;;;;;;13.75;11.50;;;;;10.92;100.00;100742.16;5059181;28;45272;-69
2022/09/30 03:57:50;;;;;;;;;16.00;13.25;;;;;10.98;100.00;100763.34;5077405;28;45553;-70
2022/09/30 04:00:15;;;;;;;;;11.50;11.50;;;;;11.00;100.00;100766.00;5077071;28;45818;-69
2022/09/30 04:02:41;;;;;;;;;14.25;14.25;;;;;11.00;100.00;100776.56;5076435;28;45213;-71
2022/09/30 04:05:07;;;;;;;;;12.00;8.50;;;;;10.95;100.00;100765.06;5071470;28;56738;-71
2022/09/30 04:07:33;;;;;;;;;13.75;11.50;;;;;10.99;100.00;100783.59;5077134;28;45502;-70
2022/09/30 04:09:59;;;;;;;;;14.00;12.00;;;;;11.00;100.00;100790.66;5076892;28;46558;-70
2022/09/30 04:12:24;;;;;;;;;14.00;11.50;;;;;11.01;100.00;100788.88;5058579;28;45358;-70
2022/09/30 04:14:50;;;;;;;;;14.00;12.50;;;;;10.96;100.00;100782.69;5077534;28;45294;-71
2022/09/30 04:17:15;;;;;;;;;10.75;9.50;;;;;11.00;100.00;100789.78;5076105;28;57659;-69
2022/09/30 04:19:40;;;;;;;;;12.50;10.50;;;;;10.97;100.00;100789.72;5057730;28;68427;-70
2022/09/30 04:22:06;;;;;;;;;12.75;12.75;;;;;10.98;100.00;100799.44;5076157;28;56361;-70
2022/09/30 04:24:32;;;;;;;;;12.50;10.00;;;;;10.92;100.00;100797.66;5061739;28;45350;-70
2022/09/30 04:26:57;;;;;;;;;11.00;9.00;;;;;10.93;100.00;100798.53;5077199;28;45442;-69
2022/09/30 04:29:23;;;;;;;;;15.00;12.25;;;;;10.98;100.00;100812.66;5076202;28;59457;-69
2022/09/30 04:31:48;;;;;;;;;14.50;10.00;;;;;10.95;100.00;100807.34;5057517;28;67008;-70
2022/09/30 04:34:13;;;;;;;;;11.50;11.00;;;;;10.93;100.00;100799.41;5076717;28;45325;-71
2022/09/30 04:36:39;;;;;;;;;15.25;11.25;;;;;10.97;100.00;100810.88;5076785;28;45429;-69
2022/09/30 04:39:05;;;;;;;;;10.75;9.50;;;;;10.98;100.00;100810.91;5076757;28;45623;-70
2022/09/30 04:41:31;;;;;;;;;13.50;10.50;;;;;10.97;100.00;100805.59;5075754;28;45216;-69
2022/09/30 04:43:57;;;;;;;;;14.25;13.00;;;;;10.99;100.00;100809.13;5076765;28;45342;-69
2022/09/30 04:46:22;;;;;;;;;10.75;10.75;;;;;11.03;100.00;100818.88;5067472;28;46393;-69
2022/09/30 04:48:48;;;;;;;;;15.50;10.50;;;;;11.05;100.00;100822.41;5043489;28;45683;-70
2022/09/30 04:51:16;;;;;;;;;15.50;10.00;;;;;10.99;100.00;100814.44;5068411;28;45486;-70
2022/09/30 04:53:42;;;;;;;;;11.00;9.25;;;;;11.02;100.00;100822.34;5067634;28;45418;-70
2022/09/30 04:56:07;;;;;;;;;14.75;14.00;;;;;10.98;100.00;100813.53;5067412;28;45396;-70
2022/09/30 04:58:33;;;;;;;;;13.50;11.75;;;;;10.97;100.00;100817.06;5066532;27;47326;-71
2022/09/30 05:01:03;;;;;;;;;13.50;12.25;;;;;10.97;100.00;100813.50;5068336;27;45540;-71
2022/09/30 05:03:29;;;;;;;;;16.00;12.50;;;;;10.98;100.00;100821.47;5071248;28;45355;-70
2022/09/30 05:05:54;;;;;;;;;11.00;11.00;;;;;10.96;100.00;100815.25;5073984;27;45259;-70
2022/09/30 05:08:21;;;;;;;;;14.00;11.75;;;;;10.99;100.00;100820.59;5076003;27;47158;-68
2022/09/30 05:10:53;;;;;;;;;11.25;10.00;;;;;10.99;100.00;100827.63;5073790;28;45530;-69
2022/09/30 05:13:19;;;;;;;;;14.25;13.00;;;;;10.95;100.00;100824.06;5066254;28;45445;-70
2022/09/30 05:15:47;;;;;;;;;16.50;11.75;;;;;10.90;100.00;100823.13;5061215;28;63155;-69
2022/09/30 05:18:13;;;;;;;;;15.25;11.25;;;;;10.89;100.00;100825.78;5062167;28;47668;-70
2022/09/30 05:20:38;;;;;;;;;15.50;13.00;;;;;10.87;100.00;100825.78;5056665;28;63708;-70
2022/09/30 05:23:05;;;;;;;;;12.75;12.50;;;;;10.87;100.00;100836.34;5064705;28;62687;-71
2022/09/30 05:25:30;;;;;;;;;14.25;11.50;;;;;10.85;100.00;100835.41;5069502;27;45889;-71
2022/09/30 05:27:55;;;;;;;;;10.25;9.25;;;;;10.82;100.00;100835.41;5059975;28;45731;-70
2022/09/30 05:30:21;;;;;;;;;13.00;10.50;;;;;10.71;100.00;100822.09;5069568;28;64276;-71
2022/09/30 05:32:46;;;;;;;;;17.50;14.25;;;;;10.85;100.00;100845.97;5069986;27;65689;-71
2022/09/30 05:35:11;;;;;;;;;14.75;13.25;;;;;10.84;100.00;100845.97;5194640;22;45571;-71
2022/09/30 05:37:37;;;;;;;;;17.25;10.50;;;;;10.83;100.00;100841.56;5016727;28;45349;-71
2022/09/30 05:40:02;;;;;;;;;14.00;11.00;;;;;10.82;100.00;100850.38;5011817;28;45346;-69
2022/09/30 05:42:30;;;;;;;;;12.25;10.75;;;;;10.81;100.00;100849.44;5011903;28;45765;-69
2022/09/30 05:44:55;;;;;;;;;12.25;10.00;;;;;10.80;100.00;100846.81;5011992;28;45673;-70
2022/09/30 05:47:20;;;;;;;;;13.50;11.00;;;;;10.73;100.00;100830.03;5008976;28;71216;-68
2022/09/30 05:49:46;;;;;;;;;15.25;13.75;;;;;10.69;100.00;100828.22;5014034;28;45510;-69
2022/09/30 05:52:13;;;;;;;;;16.00;12.50;;;;;10.75;100.00;100845.00;5014085;28;60393;-69
2022/09/30 05:54:39;;;;;;;;;19.25;12.75;;;;;10.69;100.00;100837.00;5016289;28;45463;-70
2022/09/30 05:57:06;;;;;;;;;12.25;11.75;;;;;10.74;100.00;100842.34;5015406;28;46607;-69
2022/09/30 05:59:32;;;;;;;;;13.00;12.25;;;;;10.77;100.00;100841.50;5012587;28;45498;-71
2022/09/30 06:01:57;;;;;;;;;14.75;13.75;;;;;10.71;100.00;100839.69;5011957;28;45473;-71
2022/09/30 06:04:23;;;;;;;;;16.75;13.00;;;;;10.76;100.00;100861.75;5011691;28;45495;-69
2022/09/30 06:06:48;;;;;;;;;14.00;13.00;;;;;10.71;100.00;100855.53;5015408;28;45411;-70
2022/09/30 06:09:13;;;;;;;;;13.50;11.25;;;;;10.75;100.00;100874.03;5009951;28;45467;-70
2022/09/30 06:11:39;;;;;;;;;14.75;14.00;;;;;10.75;100.00;100881.09;5017162;28;63715;-69
2022/09/30 06:14:04;;;;;;;;;16.75;13.00;;;;;10.70;100.00;100874.88;5010521;28;45539;-69
2022/09/30 06:16:30;;;;;;;;;14.00;10.75;;;;;10.68;100.00;100871.34;5011845;28;66877;-70
2022/09/30 06:18:56;;;;;;;;;14.25;13.25;;;;;10.64;100.00;100873.03;5009218;28;45373;-69
2022/09/30 06:21:22;;;;;;;;;16.00;14.00;;;;;10.71;100.00;100888.09;5011937;28;45735;-69
2022/09/30 06:23:47;;;;;;;;;15.25;14.75;;;;;10.68;100.00;100892.47;5010757;28;45739;-69
2022/09/30 06:26:13;;;;;;;;;13.75;11.75;;;;;10.72;100.00;100895.16;5005944;28;69054;-70
2022/09/30 06:28:39;;;;;;;;;13.75;12.75;;;;;10.68;100.00;100889.81;5015389;28;45579;-69
2022/09/30 06:31:05;;;;;;;;;20.00;14.00;;;;;10.74;100.00;100903.97;5009291;28;45579;-71
2022/09/30 06:33:31;;;;;;;;;16.50;14.50;;;;;10.70;100.00;100890.72;5007375;28;45498;-69
2022/09/30 06:35:57;;;;;;;;;15.25;15.25;;;;;10.73;100.00;100898.69;5011770;28;46445;-68
2022/09/30 06:38:22;;;;;;;;;14.25;14.25;;;;;10.80;100.00;100897.88;5012771;28;46118;-69
2022/09/30 06:40:48;;;;;;;;;18.75;15.50;;;;;10.75;100.00;100894.28;5016587;28;45565;-70
2022/09/30 06:43:14;;;;;;;;;14.00;10.50;;;;;10.78;100.00;100898.75;5015497;28;45541;-70
2022/09/30 06:45:39;;;;;;;;;14.25;14.25;;;;;10.85;100.00;100908.50;5015887;28;60710;-69
2022/09/30 06:48:07;;;;;;;;;18.75;15.75;;;;;10.86;100.00;100918.19;5013876;28;45522;-70
2022/09/30 06:50:33;;;;;;;;;16.25;16.00;;;;;10.90;100.00;100920.88;5012667;28;45494;-71
2022/09/30 06:53:01;;;;;;;;;24.50;16.50;;;;;10.91;100.00;100909.44;5030924;28;45594;-70
2022/09/30 06:55:28;;;;;;;;;14.75;14.00;;;;;10.94;100.00;100908.59;5016182;28;46395;-70
2022/09/30 06:57:54;;;;;;;;;21.50;14.00;;;;;11.03;100.00;100921.91;5014191;28;45340;-70
2022/09/30 07:00:20;;;;;;;;;19.75;14.00;;;;;11.05;100.00;100924.56;5013694;28;45524;-71
2022/09/30 07:02:47;;;;;;;;;23.25;16.25;;;;;11.06;100.00;100919.28;5012500;28;45438;-69
2022/09/30 07:05:14;;;;;;;;;24.50;18.75;;;;;11.08;100.00;100914.00;5013741;28;45764;-71
2022/09/30 07:07:39;;;;;;;;;20.00;16.00;;;;;11.16;100.00;100907.06;5014366;28;45519;-69
2022/09/30 07:10:05;;;;;;;;;23.25;17.75;;;;;11.19;100.00;100908.00;5008260;28;45359;-70
2022/09/30 07:12:31;;;;;;;;;24.50;17.00;;;;;11.22;100.00;100910.63;5008585;28;45574;-69
2022/09/30 07:14:58;;;;;;;;;23.25;17.25;;;;;11.24;100.00;100906.28;5016756;28;47107;-68
2022/09/30 07:17:24;;;;;;;;;18.50;17.00;;;;;11.26;100.00;100901.88;5010827;28;45602;-71
2022/09/30 07:19:51;;;;;;;;;22.50;17.25;;;;;11.28;100.00;100907.16;5013136;28;45732;-69
2022/09/30 07:22:29;;;;;;;;;16.50;16.50;;;;;11.25;100.00;100899.22;5012846;28;45625;-69
2022/09/30 07:24:56;;;;;;;;;21.75;19.00;;;;;11.22;100.00;100900.06;5004640;28;46588;-69
2022/09/30 07:27:22;;;;;;;;;18.25;18.25;;;;;11.29;100.00;100911.56;5005184;28;45591;-68
2022/09/30 07:29:47;;;;;;;;;17.50;17.50;;;;;11.37;100.00;100930.16;5003895;28;45449;-69
2022/09/30 07:32:13;;;;;;;;;18.50;17.00;;;;;11.36;100.00;100923.13;5010052;28;61761;-69
2022/09/30 07:34:42;;;;;;;;;21.25;18.75;;;;;11.38;100.00;100927.53;5008653;28;56960;-69
2022/09/30 07:37:13;;;;;;;;;21.25;19.25;;;;;11.36;100.00;100916.06;5009051;28;45586;-69
2022/09/30 07:39:38;;;;;;;;;20.25;20.25;;;;;11.41;100.00;100927.56;5013558;28;45281;-71
2022/09/30 07:42:04;;;;;;;;;28.25;21.50;;;;;11.43;100.00;100919.66;5013051;28;45596;-69
2022/09/30 07:44:30;;;;;;;;;19.25;18.50;;;;;11.49;100.00;100928.50;5009616;28;46487;-72
2022/09/30 07:46:57;;;;;;;;;18.00;18.00;;;;;11.49;100.00;100922.34;5011839;28;45507;-69
2022/09/30 07:49:25;;;;;;;;;18.75;18.25;;;;;11.57;100.00;100931.25;5008051;28;45447;-69
2022/09/30 07:51:52;;;;;;;;;22.50;20.50;;;;;11.63;100.00;100933.94;5004508;28;45498;-69
2022/09/30 07:54:21;;;;;;;;;24.50;20.00;;;;;11.68;100.00;100937.50;5012583;28;46364;-68
2022/09/30 07:56:47;;;;;;;;;21.75;19.25;;;;;11.73;100.00;100934.91;5008527;28;45476;-71
2022/09/30 07:59:12;;;;;;;;;23.25;17.50;;;;;11.77;100.00;100944.59;5006649;28;46343;-71
2022/09/30 08:01:37;;;;;;;;;23.75;21.25;;;;;11.82;100.00;100939.38;5012714;28;59569;-71
2022/09/30 08:04:05;;;;;;;;;27.25;22.25;;;;;11.89;100.00;100942.09;5011663;28;46278;-69
2022/09/30 08:06:35;;;;;;;;;27.00;21.25;;;;;11.89;100.00;100930.66;5011736;28;45522;-69
2022/09/30 08:09:00;;;;;;;;;24.25;21.75;;;;;11.98;100.00;100928.03;5011100;28;45613;-69
2022/09/30 08:11:25;;;;;;;;;24.25;19.50;;;;;12.09;100.00;100942.25;5015257;28;54089;-69
2022/09/30 08:13:55;;;;;;;;;24.50;20.50;;;;;12.14;100.00;100939.59;5012781;28;46185;-71
2022/09/30 08:16:22;;;;;;;;;20.75;19.50;;;;;12.18;100.00;100936.13;5025074;28;45974;-69
2022/09/30 08:18:47;;;;;;;;;26.00;20.75;;;;;12.22;100.00;100941.44;5011778;28;45518;-70
2022/09/30 08:21:13;;;;;;;;;21.75;20.75;;;;;12.22;100.00;100930.84;5013495;28;45476;-70
2022/09/30 08:23:39;;;;;;;;;25.00;20.25;;;;;12.31;100.00;100933.56;5015751;28;45661;-71
2022/09/30 08:26:07;;;;;;;;;18.50;17.00;;;;;12.38;100.00;100938.88;5007737;28;45439;-70
2022/09/30 08:28:33;;;;;;;;;18.50;16.75;;;;;12.44;100.00;100933.63;5011178;28;45412;-71
2022/09/30 08:31:06;;;;;;;;;20.75;18.25;;;;;12.49;100.00;100927.47;5002917;28;45507;-70
2022/09/30 08:33:31;;;;;;;;;25.25;21.00;;;;;12.54;100.00;100938.97;5011244;28;46025;-70
2022/09/30 08:36:01;;;;;;;;;23.50;23.50;;;;;12.59;100.00;100929.28;5013140;28;45593;-71
2022/09/30 08:38:26;;;;;;;;;22.25;20.00;;;;;12.62;100.00;100928.38;5014726;28;45403;-69
2022/09/30 08:41:18;;;;;;;;;24.00;21.25;;;;;12.72;100.00;100940.78;5011453;28;54073;-70
2022/09/30 08:43:50;;;;;;;;;27.50;23.25;;;;;12.76;100.00;100936.41;5013151;28;46585;-70
2022/09/30 08:46:36;;;;;;;;;22.00;21.00;;;;;12.79;100.00;100926.72;5003024;28;45499;-69
2022/09/30 08:49:19;;;;;;;;;28.25;23.25;;;;;12.85;100.00;100925.84;5011151;28;45423;-71
2022/09/30 08:51:46;;;;;;;;;23.00;19.25;;;;;12.84;100.00;100913.47;5014987;28;45265;-70
2022/09/30 08:54:18;;;;;;;;;28.50;26.00;;;;;12.99;100.00;100933.81;5009168;28;46415;-70
2022/09/30 08:56:44;;;;;;;;;22.50;20.50;;;;;13.04;100.00;100938.25;5011641;28;45484;-70
2022/09/30 08:59:31;;;;;;;;;25.00;23.50;;;;;13.11;100.00;100942.72;5001680;28;45869;-70
2022/09/30 09:02:33;;;;;;;;;23.00;19.75;;;;;13.19;100.00;100939.19;5011983;28;45558;-71
2022/09/30 09:05:01;;;;;;;;;24.50;22.00;;;;;13.25;100.00;100932.13;4962762;28;46478;-71
2022/09/30 09:07:49;;;;;;;;;21.75;20.75;;;;;13.34;100.00;100941.88;4999025;28;46779;-71
2022/09/30 09:10:44;;;;;;;;;26.00;23.00;;;;;13.36;100.00;100934.81;5012125;28;45558;-70
2022/09/30 09:13:18;;;;;;;;;23.75;22.00;;;;;13.48;100.00;100941.91;5014648;28;45496;-69
2022/09/30 09:16:31;;;;;;;;;25.00;20.25;;;;;13.53;100.00;100946.34;5015002;28;46110;-70
2022/09/30 09:19:16;;;;;;;;;21.50;19.25;;;;;13.60;100.00;100942.81;4968288;28;46056;-71
2022/09/30 09:21:58;;;;;;;;;26.25;21.50;;;;;13.67;100.00;100945.44;4972012;28;45523;-70
2022/09/30 09:24:26;;;;;;;;;24.00;19.00;;;;;13.73;100.00;100946.31;4996315;28;45951;-70
2022/09/30 09:26:53;;;;;;;;;19.25;18.50;;;;;13.79;100.00;100948.09;5014398;28;47265;-70
2022/09/30 09:30:05;;;;;;;;;21.25;17.75;;;;;13.85;100.00;100951.66;5009721;28;45536;-70
2022/09/30 09:32:30;;;;;;;;;16.75;16.00;;;;;13.88;100.00;100935.69;5005972;28;45424;-70
2022/09/30 09:34:59;;;;;;;;;24.25;22.00;;;;;13.92;100.00;100933.94;5011834;28;52806;-70
2022/09/30 09:40:37;;;;;;;;;16.75;13.00;;;;;14.08;100.00;100946.31;5011577;28;45425;-70
2022/09/30 09:43:21;;;;;;;;;15.00;12.00;;;;;14.22;100.00;100963.97;5022552;28;45439;-70
2022/09/30 09:46:07;;;;;;;;;12.33;12.00;;;;;14.30;100.00;100965.75;5014996;28;45411;-71
2022/09/30 09:48:34;;;;;;;;;13.67;12.00;;;;;14.32;100.00;100949.78;5010844;28;46115;-69
2022/09/30 09:51:10;;;;;;;;;12.33;11.33;;;;;14.41;100.00;100965.72;5012694;28;45509;-69
2022/09/30 09:53:40;;;;;;;;;10.00;10.00;;;;;14.48;100.00;100959.50;5015756;28;45440;-72
2022/09/30 09:56:18;;;;;;;;;14.00;14.00;;;;;14.54;100.00;100956.88;5018889;28;45606;-70
2022/09/30 09:59:08;;;;;;;;;15.00;13.67;;;;;14.61;100.00;100957.72;5017376;28;46440;-69
2022/09/30 10:01:36;;;;;;;;;14.00;13.33;;;;;14.63;100.00;100953.28;5016987;28;45502;-71
2022/09/30 10:04:10;;;;;;;;;13.33;12.00;;;;;14.72;100.00;100952.38;5008414;28;45383;-74
2022/09/30 10:06:48;;;;;;;;;18.00;12.00;;;;;14.75;100.00;100950.56;5017691;28;45470;-70
2022/09/30 10:09:34;;;;;;;;;16.00;10.33;;;;;14.83;100.00;100951.44;5013749;28;46887;-70
2022/09/30 10:12:05;;;;;;;;;11.67;10.67;;;;;14.87;100.00;100944.34;5015894;28;45511;-73
2022/09/30 10:14:59;;;;;;;;;15.33;11.00;;;;;14.94;100.00;100949.59;5016291;28;45399;-71
2022/09/30 10:17:29;;;;;;;;;14.67;12.67;;;;;15.05;100.00;100953.97;5015862;28;45526;-72
2022/09/30 10:20:18;;;;;;;;;18.33;16.33;;;;;15.10;100.00;100953.06;5014959;28;46223;-70
2022/09/30 10:22:43;;;;;;;;;13.33;11.67;;;;;15.13;100.00;100944.19;5009982;28;45457;-73
2022/09/30 10:25:14;;;;;;;;;12.67;11.00;;;;;15.24;100.00;100955.66;5010728;28;45455;-72
2022/09/30 10:27:52;;;;;;;;;14.33;13.00;;;;;15.26;100.00;100934.34;5016483;28;45527;-72
2022/09/30 10:30:39;;;;;;;;;12.67;11.00;;;;;15.39;100.00;100951.97;5011058;28;47357;-70
2022/09/30 10:33:17;;;;;;;;;13.00;12.00;;;;;15.40;100.00;100943.13;5014632;28;45510;-72
2022/09/30 10:36:16;;;;;;;;;13.00;11.67;;;;;15.52;100.00;100947.47;5011141;28;45495;-75
2022/09/30 10:38:57;;;;;;;;;13.00;11.33;;;;;15.53;100.00;100943.91;5014704;28;45404;-73
2022/09/30 10:41:25;;;;;;;;;13.33;12.33;;;;;15.62;100.00;100952.72;5015483;28;46390;-75
2022/09/30 10:43:53;;;;;;;;;10.67;10.67;;;;;15.66;100.00;100949.19;5012348;28;45488;-73
2022/09/30 10:46:28;;;;;;;;;15.00;11.00;;;;;15.75;100.00;100949.97;5014645;28;45529;-73
2022/09/30 10:48:56;;;;;;;;;10.33;9.67;;;;;15.79;100.00;100954.38;5011108;28;45474;-71
2022/09/30 10:51:27;;;;;;;;;8.33;7.00;;;;;15.78;100.00;100939.31;5006587;28;46653;-73
2022/09/30 10:53:54;;;;;;;;;5.67;5.67;;;;;15.86;100.00;100946.31;5016354;28;45351;-72
2022/09/30 10:56:37;;;;;;;;;9.00;7.00;;;;;15.93;100.00;100947.16;5014181;28;45451;-72
2022/09/30 10:59:05;;;;;;;;;6.00;6.00;;;;;15.94;100.00;100928.50;5011871;28;45595;-70
2022/09/30 11:01:42;;;;;;;;;8.00;8.00;;;;;16.05;100.00;100938.19;5006334;28;46561;-70
2022/09/30 11:04:47;;;;;;;;;6.67;5.67;;;;;16.10;100.00;100937.22;5005399;28;45468;-70
2022/09/30 11:07:20;;;;;;;;;9.00;9.00;;;;;16.20;100.00;100944.25;4975803;28;45627;-71
2022/09/30 11:09:51;;;;;;;;;6.00;6.00;;;;;16.31;100.00;100940.56;5009945;28;45565;-70
2022/09/30 11:12:20;;;;;;;;;7.33;7.33;;;;;16.38;100.00;100939.59;5013967;28;47535;-70
2022/09/30 11:14:54;;;;;;;;;5.33;5.33;;;;;16.41;100.00;100932.47;5008483;28;45701;-70
2022/09/30 11:17:38;;;;;;;;;5.00;4.00;;;;;16.43;100.00;100928.00;5011609;28;45490;-70
2022/09/30 11:20:11;;;;;;;;;4.33;3.67;;;;;16.54;100.00;100946.53;5010715;28;45571;-69
2022/09/30 11:22:45;;;;;;;;;4.00;4.00;;;;;16.60;100.00;100943.78;5011592;28;46445;-70
2022/09/30 11:25:15;;;;;;;;;4.00;4.00;;;;;16.64;100.00;100934.84;5028625;28;45641;-69